Time;durP1;ratioP1;P1;durP2;ratioP2;P2;SDS_P1;SDS_P2;PMS_P1;PMS_P2;Temp;Humidity;BMP_temperature;BMP_pressure;BME280_temperature;BME280_humidity;BME280_pressure;Samples;Min_cycle;Max_cycle;Signal;HPM_P1;HPM_P2
2023/07/13 00:01:12;;;;;;;3.67;2.13;;;;;;;;;;5054559;28;20466;-53
2023/07/13 00:03:40;;;;;;;2.60;1.90;;;;;;;;;;5054419;28;20406;-53
2023/07/13 00:06:07;;;;;;;3.70;2.10;;;;;;;;;;5054395;28;20940;-53
2023/07/13 00:08:33;;;;;;;6.10;2.33;;;;;;;;;;5054718;28;20797;-53
2023/07/13 00:10:59;;;;;;;12.53;3.00;;;;;;;;;;5054339;28;20389;-53
2023/07/13 00:13:25;;;;;;;4.40;2.50;;;;;;;;;;5054342;28;20427;-52
2023/07/13 00:15:51;;;;;;;6.30;2.47;;;;;;;;;;5054378;28;20385;-52
2023/07/13 00:18:17;;;;;;;7.40;2.30;;;;;;;;;;5054114;28;20506;-53
2023/07/13 00:20:43;;;;;;;2.83;2.40;;;;;;;;;;5053981;28;20443;-53
2023/07/13 00:23:09;;;;;;;4.37;3.00;;;;;;;;;;5054688;28;20410;-53
2023/07/13 00:25:35;;;;;;;9.87;2.60;;;;;;;;;;5052860;28;20420;-52
2023/07/13 00:28:01;;;;;;;2.80;2.10;;;;;;;;;;5054529;28;20418;-51
2023/07/13 00:30:27;;;;;;;9.47;2.90;;;;;;;;;;5053964;28;20403;-53
2023/07/13 00:32:53;;;;;;;2.53;2.13;;;;;;;;;;5053960;28;20793;-52
2023/07/13 00:35:19;;;;;;;6.63;2.20;;;;;;;;;;5053951;28;20510;-53
2023/07/13 00:37:45;;;;;;;5.00;2.00;;;;;;;;;;5053973;28;20416;-53
2023/07/13 00:40:13;;;;;;;2.53;2.20;;;;;;;;;;5053624;28;20422;-53
2023/07/13 00:42:39;;;;;;;2.03;1.83;;;;;;;;;;5053886;28;20407;-53
2023/07/13 00:45:08;;;;;;;8.87;2.60;;;;;;;;;;5053859;28;20414;-51
2023/07/13 00:47:34;;;;;;;4.60;2.33;;;;;;;;;;5053564;28;20936;-53
2023/07/13 00:50:00;;;;;;;3.00;2.70;;;;;;;;;;5053646;28;20485;-53
2023/07/13 00:52:28;;;;;;;3.37;2.30;;;;;;;;;;5053773;28;20397;-53
2023/07/13 00:54:54;;;;;;;2.70;2.50;;;;;;;;;;5053569;28;20395;-51
2023/07/13 00:57:21;;;;;;;5.97;2.47;;;;;;;;;;5053502;28;20395;-53
2023/07/13 00:59:48;;;;;;;5.37;1.90;;;;;;;;;;5053367;28;20398;-53
2023/07/13 01:02:16;;;;;;;8.00;2.30;;;;;;;;;;5052799;28;21046;-51
2023/07/13 01:04:43;;;;;;;4.03;2.10;;;;;;;;;;5052833;28;20388;-53
2023/07/13 01:07:11;;;;;;;5.13;2.53;;;;;;;;;;5053020;28;20421;-53
2023/07/13 01:09:37;;;;;;;8.30;3.27;;;;;;;;;;5052772;28;20891;-53
2023/07/13 01:12:03;;;;;;;4.03;1.87;;;;;;;;;;5053293;28;20391;-53
2023/07/13 01:14:29;;;;;;;3.07;2.27;;;;;;;;;;5052965;28;20457;-53
2023/07/13 01:16:55;;;;;;;7.33;2.10;;;;;;;;;;5051700;28;20884;-53
2023/07/13 01:19:29;;;;;;;6.30;2.03;;;;;;;;;;5041222;28;20433;-53
2023/07/13 01:21:55;;;;;;;2.63;2.43;;;;;;;;;;5063164;28;20481;-53
2023/07/13 01:24:21;;;;;;;5.47;2.80;;;;;;;;;;5053014;28;20417;-53
2023/07/13 01:26:47;;;;;;;6.43;2.00;;;;;;;;;;5053065;28;20397;-53
2023/07/13 01:29:13;;;;;;;2.67;2.30;;;;;;;;;;5052881;28;20921;-53
2023/07/13 01:31:39;;;;;;;3.97;2.43;;;;;;;;;;5052325;28;20501;-52
2023/07/13 01:34:05;;;;;;;3.57;2.03;;;;;;;;;;5052858;28;20396;-53
2023/07/13 01:36:31;;;;;;;5.03;1.90;;;;;;;;;;5052558;28;20414;-53
2023/07/13 01:38:57;;;;;;;5.43;2.27;;;;;;;;;;5052736;28;20503;-53
2023/07/13 01:41:23;;;;;;;4.33;2.20;;;;;;;;;;5052565;28;20544;-53
2023/07/13 01:43:49;;;;;;;2.70;1.97;;;;;;;;;;5052854;28;20384;-52
2023/07/13 01:46:15;;;;;;;4.00;2.27;;;;;;;;;;5052485;28;20437;-53
2023/07/13 01:48:41;;;;;;;8.20;2.63;;;;;;;;;;5052597;28;20420;-51
2023/07/13 01:51:07;;;;;;;4.23;1.90;;;;;;;;;;5052640;28;20415;-50
2023/07/13 01:53:33;;;;;;;4.87;1.97;;;;;;;;;;5052629;28;20398;-53
2023/07/13 01:55:59;;;;;;;2.17;1.97;;;;;;;;;;5052617;28;20392;-54
2023/07/13 01:58:25;;;;;;;5.43;2.27;;;;;;;;;;5052350;28;20803;-53
2023/07/13 02:00:52;;;;;;;10.03;2.43;;;;;;;;;;5052083;28;20526;-51
2023/07/13 02:03:19;;;;;;;5.80;2.00;;;;;;;;;;5052409;28;20417;-53
2023/07/13 02:05:45;;;;;;;4.70;1.83;;;;;;;;;;5052317;28;20784;-53
2023/07/13 02:08:11;;;;;;;5.40;2.40;;;;;;;;;;5052185;28;20470;-53
2023/07/13 02:10:37;;;;;;;9.07;3.23;;;;;;;;;;5052046;28;20398;-53
2023/07/13 02:13:05;;;;;;;5.60;2.27;;;;;;;;;;5052163;28;20399;-53
2023/07/13 02:15:32;;;;;;;3.33;1.90;;;;;;;;;;5051922;28;20421;-52
2023/07/13 02:17:58;;;;;;;2.07;1.80;;;;;;;;;;5052266;28;20764;-51
2023/07/13 02:20:24;;;;;;;2.60;2.10;;;;;;;;;;5051855;28;20802;-52
2023/07/13 02:22:50;;;;;;;11.17;2.43;;;;;;;;;;5052367;28;20436;-50
2023/07/13 02:25:16;;;;;;;4.10;2.40;;;;;;;;;;5051894;28;20416;-53
2023/07/13 02:27:42;;;;;;;2.80;2.17;;;;;;;;;;5051874;28;20416;-53
2023/07/13 02:30:08;;;;;;;3.33;1.80;;;;;;;;;;5051567;28;20417;-52
2023/07/13 02:32:35;;;;;;;3.73;2.40;;;;;;;;;;5051825;28;20496;-52
2023/07/13 02:35:01;;;;;;;6.90;2.37;;;;;;;;;;5051832;28;20409;-53
2023/07/13 02:37:27;;;;;;;4.87;2.20;;;;;;;;;;5051753;28;20393;-52
2023/07/13 02:39:54;;;;;;;2.43;2.10;;;;;;;;;;5051723;28;20413;-54
2023/07/13 02:42:20;;;;;;;5.20;1.90;;;;;;;;;;5051682;28;20429;-52
2023/07/13 02:44:46;;;;;;;2.80;2.23;;;;;;;;;;5051521;28;20397;-53
2023/07/13 02:47:12;;;;;;;4.97;2.20;;;;;;;;;;5043588;28;20400;-53
2023/07/13 02:49:38;;;;;;;3.90;2.23;;;;;;;;;;5050776;28;20436;-52
2023/07/13 02:52:05;;;;;;;5.57;2.30;;;;;;;;;;5051625;28;20900;-51
2023/07/13 02:54:31;;;;;;;2.53;2.23;;;;;;;;;;5051569;28;20492;-51
2023/07/13 02:56:57;;;;;;;4.40;2.10;;;;;;;;;;5052143;28;20472;-53
2023/07/13 02:59:23;;;;;;;3.97;2.20;;;;;;;;;;5051405;28;20418;-53
2023/07/13 03:01:48;;;;;;;4.00;2.37;;;;;;;;;;5051272;28;20443;-54
2023/07/13 03:04:19;;;;;;;5.23;2.60;;;;;;;;;;5051378;28;20407;-53
2023/07/13 03:06:45;;;;;;;6.17;2.23;;;;;;;;;;5051432;28;20426;-53
2023/07/13 03:09:12;;;;;;;3.77;2.70;;;;;;;;;;5051417;28;20529;-53
2023/07/13 03:11:38;;;;;;;5.07;2.00;;;;;;;;;;5051146;28;20391;-52
2023/07/13 03:14:04;;;;;;;2.33;1.83;;;;;;;;;;5051224;28;20395;-53
2023/07/13 03:16:30;;;;;;;4.80;1.70;;;;;;;;;;5051529;28;20440;-53
2023/07/13 03:18:56;;;;;;;4.27;2.20;;;;;;;;;;5051328;28;21015;-53
2023/07/13 03:21:22;;;;;;;3.03;2.17;;;;;;;;;;5051112;28;20508;-52
2023/07/13 03:23:48;;;;;;;5.43;2.20;;;;;;;;;;5051259;28;20447;-52
2023/07/13 03:26:16;;;;;;;2.60;2.03;;;;;;;;;;5051082;28;20397;-53
2023/07/13 03:28:42;;;;;;;8.17;2.00;;;;;;;;;;5051099;28;20516;-51
2023/07/13 03:31:14;;;;;;;3.30;2.20;;;;;;;;;;5051351;28;20386;-51
2023/07/13 03:33:40;;;;;;;3.80;2.40;;;;;;;;;;5051296;28;20470;-53
2023/07/13 03:36:08;;;;;;;3.77;2.00;;;;;;;;;;5051297;28;20383;-54
2023/07/13 03:38:34;;;;;;;3.50;2.00;;;;;;;;;;5051105;28;20444;-53
2023/07/13 03:41:00;;;;;;;5.97;2.50;;;;;;;;;;5050840;28;21012;-53
2023/07/13 03:43:26;;;;;;;2.23;1.90;;;;;;;;;;5051081;28;20770;-53
2023/07/13 03:45:52;;;;;;;3.47;1.90;;;;;;;;;;5042554;28;20390;-53
2023/07/13 03:48:18;;;;;;;2.13;1.93;;;;;;;;;;5038270;28;20803;-51
2023/07/13 03:50:44;;;;;;;6.03;2.20;;;;;;;;;;5050917;28;20429;-53
2023/07/13 03:53:10;;;;;;;2.87;2.10;;;;;;;;;;5051029;28;20407;-54
2023/07/13 03:55:36;;;;;;;4.27;2.03;;;;;;;;;;5051462;28;20889;-53
2023/07/13 03:58:21;;;;;;;14.00;2.70;;;;;;;;;;5050936;28;21008;-53
2023/07/13 04:00:50;;;;;;;4.90;2.23;;;;;;;;;;5053409;28;20462;-53
2023/07/13 04:03:17;;;;;;;3.40;2.00;;;;;;;;;;5054699;28;20501;-53
2023/07/13 04:05:43;;;;;;;4.80;2.17;;;;;;;;;;5054598;28;20610;-53
2023/07/13 04:08:09;;;;;;;3.97;2.20;;;;;;;;;;5054439;28;20963;-52
2023/07/13 04:10:35;;;;;;;9.00;2.53;;;;;;;;;;5054309;28;20784;-53
2023/07/13 04:13:01;;;;;;;5.90;1.97;;;;;;;;;;5054432;28;20473;-51
2023/07/13 04:15:29;;;;;;;6.03;2.33;;;;;;;;;;5054351;28;20465;-52
2023/07/13 04:17:55;;;;;;;4.23;1.80;;;;;;;;;;5054540;28;20471;-53
2023/07/13 04:20:21;;;;;;;7.47;3.00;;;;;;;;;;5054575;28;20834;-52
2023/07/13 04:22:49;;;;;;;3.73;2.10;;;;;;;;;;5054351;28;20390;-53
2023/07/13 04:25:15;;;;;;;5.23;2.23;;;;;;;;;;5054204;28;20926;-53
2023/07/13 04:27:41;;;;;;;8.17;2.43;;;;;;;;;;5054051;28;20425;-53
2023/07/13 04:30:07;;;;;;;5.80;2.40;;;;;;;;;;5053986;28;20408;-53
2023/07/13 04:32:34;;;;;;;3.23;2.40;;;;;;;;;;5054147;28;20382;-53
2023/07/13 04:35:00;;;;;;;4.03;1.90;;;;;;;;;;5054083;28;20575;-51
2023/07/13 04:37:27;;;;;;;4.70;2.60;;;;;;;;;;5053913;28;20939;-52
2023/07/13 04:39:53;;;;;;;5.77;2.87;;;;;;;;;;5053986;28;20388;-52
2023/07/13 04:42:19;;;;;;;3.53;2.20;;;;;;;;;;5053824;28;20455;-52
2023/07/13 04:44:49;;;;;;;2.80;2.30;;;;;;;;;;5053933;28;20405;-52
2023/07/13 04:47:16;;;;;;;4.70;2.30;;;;;;;;;;5047781;28;20841;-52
2023/07/13 04:49:43;;;;;;;12.27;2.90;;;;;;;;;;5053408;28;20402;-52
2023/07/13 04:52:09;;;;;;;4.80;2.20;;;;;;;;;;5053712;28;20417;-52
2023/07/13 04:54:37;;;;;;;2.67;2.40;;;;;;;;;;5054345;28;20497;-48
2023/07/13 04:57:03;;;;;;;4.80;2.37;;;;;;;;;;5053655;28;20415;-48
2023/07/13 04:59:29;;;;;;;3.40;2.30;;;;;;;;;;5053531;28;20838;-48
2023/07/13 05:01:55;;;;;;;3.60;2.00;;;;;;;;;;5053366;28;20434;-48
2023/07/13 05:04:21;;;;;;;5.27;2.50;;;;;;;;;;5053366;28;20478;-50
2023/07/13 05:06:48;;;;;;;5.73;2.07;;;;;;;;;;5053468;28;20435;-51
2023/07/13 05:09:14;;;;;;;2.90;2.07;;;;;;;;;;5053252;28;21007;-48
2023/07/13 05:11:40;;;;;;;2.93;2.10;;;;;;;;;;5052550;28;20408;-48
2023/07/13 05:14:06;;;;;;;3.33;2.60;;;;;;;;;;5053331;28;20466;-48
2023/07/13 05:16:32;;;;;;;5.50;2.30;;;;;;;;;;5053248;28;20421;-49
2023/07/13 05:18:58;;;;;;;3.70;2.20;;;;;;;;;;5053315;28;20821;-49
2023/07/13 05:21:24;;;;;;;3.20;2.37;;;;;;;;;;5053075;28;20518;-50
2023/07/13 05:23:50;;;;;;;7.07;2.47;;;;;;;;;;5053099;28;20941;-51
2023/07/13 05:26:16;;;;;;;6.93;2.40;;;;;;;;;;5053044;28;20802;-52
2023/07/13 05:28:42;;;;;;;5.17;2.30;;;;;;;;;;5053130;28;20930;-48
2023/07/13 05:31:09;;;;;;;4.30;2.13;;;;;;;;;;5053012;28;20390;-50
2023/07/13 05:33:35;;;;;;;5.53;2.00;;;;;;;;;;5050068;28;20785;-51
2023/07/13 05:36:01;;;;;;;5.87;2.17;;;;;;;;;;5049049;28;20416;-50
2023/07/13 05:38:29;;;;;;;5.30;2.53;;;;;;;;;;5052914;28;20431;-51
2023/07/13 05:40:57;;;;;;;5.00;2.70;;;;;;;;;;5052544;28;20439;-48
2023/07/13 05:43:23;;;;;;;8.30;2.47;;;;;;;;;;5055822;28;20400;-47
2023/07/13 05:45:49;;;;;;;9.47;3.37;;;;;;;;;;5058833;28;20384;-48
2023/07/13 05:48:15;;;;;;;2.60;2.40;;;;;;;;;;5052636;28;20489;-49
2023/07/13 05:50:41;;;;;;;3.33;2.30;;;;;;;;;;5052444;28;20813;-49
2023/07/13 05:53:07;;;;;;;2.90;2.53;;;;;;;;;;5052526;28;20472;-49
2023/07/13 05:55:34;;;;;;;4.73;2.70;;;;;;;;;;5052328;28;20380;-49
2023/07/13 05:58:00;;;;;;;4.47;2.43;;;;;;;;;;5052528;28;20423;-50
2023/07/13 06:00:28;;;;;;;4.37;2.57;;;;;;;;;;5051997;28;20919;-49
2023/07/13 06:02:54;;;;;;;3.10;2.60;;;;;;;;;;5052528;28;20420;-50
2023/07/13 06:05:20;;;;;;;7.77;2.70;;;;;;;;;;5052185;28;20417;-47
2023/07/13 06:07:46;;;;;;;10.90;3.13;;;;;;;;;;5052129;28;20819;-48
2023/07/13 06:10:12;;;;;;;5.53;2.67;;;;;;;;;;5052035;28;20418;-48
2023/07/13 06:12:38;;;;;;;14.40;2.90;;;;;;;;;;5052313;28;20946;-49
2023/07/13 06:15:04;;;;;;;4.53;3.27;;;;;;;;;;5051941;28;20805;-48
2023/07/13 06:17:30;;;;;;;3.77;3.33;;;;;;;;;;5052349;28;20418;-48
2023/07/13 06:19:56;;;;;;;11.00;3.60;;;;;;;;;;5052196;28;20419;-50
2023/07/13 06:22:21;;;;;;;6.57;2.77;;;;;;;;;;5051764;28;20855;-52
2023/07/13 06:24:47;;;;;;;7.20;3.60;;;;;;;;;;5051444;28;20892;-48
2023/07/13 06:27:13;;;;;;;6.90;2.77;;;;;;;;;;5051939;28;20467;-48
2023/07/13 06:29:41;;;;;;;8.07;2.97;;;;;;;;;;5051409;28;20433;-49
2023/07/13 06:32:07;;;;;;;7.50;3.13;;;;;;;;;;5052018;28;20394;-49
2023/07/13 06:34:33;;;;;;;9.07;3.27;;;;;;;;;;5051823;28;20445;-50
2023/07/13 06:36:59;;;;;;;12.90;4.23;;;;;;;;;;5051949;28;20465;-52
2023/07/13 06:39:25;;;;;;;3.83;3.10;;;;;;;;;;5051568;28;20786;-48
2023/07/13 06:41:51;;;;;;;10.20;3.43;;;;;;;;;;5051541;28;20564;-49
2023/07/13 06:44:18;;;;;;;8.23;3.50;;;;;;;;;;5051511;28;20411;-48
2023/07/13 06:46:43;;;;;;;10.07;3.73;;;;;;;;;;5051565;28;20470;-51
2023/07/13 06:49:10;;;;;;;9.60;3.23;;;;;;;;;;5051714;28;20512;-49
2023/07/13 06:51:36;;;;;;;5.83;3.00;;;;;;;;;;5051382;28;20406;-49
2023/07/13 06:54:02;;;;;;;10.93;3.47;;;;;;;;;;5051683;28;20424;-48
2023/07/13 06:56:27;;;;;;;10.23;3.00;;;;;;;;;;5051548;28;20741;-48
2023/07/13 06:58:54;;;;;;;9.60;3.40;;;;;;;;;;5051411;28;20786;-50
2023/07/13 07:01:20;;;;;;;11.20;3.60;;;;;;;;;;5051245;28;20497;-48
2023/07/13 07:03:47;;;;;;;8.67;3.10;;;;;;;;;;5051422;28;20442;-48
2023/07/13 07:06:13;;;;;;;4.90;3.23;;;;;;;;;;5051307;28;20450;-50
2023/07/13 07:08:40;;;;;;;9.43;2.83;;;;;;;;;;5051434;28;20418;-50
2023/07/13 07:11:06;;;;;;;8.10;3.23;;;;;;;;;;5051275;28;20383;-48
2023/07/13 07:13:33;;;;;;;7.63;3.27;;;;;;;;;;5051318;28;20771;-48
2023/07/13 07:16:00;;;;;;;8.47;4.33;;;;;;;;;;5051475;28;20418;-48
2023/07/13 07:18:26;;;;;;;6.43;3.00;;;;;;;;;;5051436;28;20452;-48
2023/07/13 07:20:53;;;;;;;7.53;3.63;;;;;;;;;;5051070;28;20462;-47
2023/07/13 07:23:19;;;;;;;6.50;3.43;;;;;;;;;;5051352;28;20390;-49
2023/07/13 07:25:45;;;;;;;6.30;3.70;;;;;;;;;;5051163;28;20960;-51
2023/07/13 07:28:12;;;;;;;5.60;2.87;;;;;;;;;;5049638;28;20416;-51
2023/07/13 07:30:38;;;;;;;5.80;3.63;;;;;;;;;;5051155;28;20497;-50
2023/07/13 07:33:04;;;;;;;9.37;3.87;;;;;;;;;;5051268;28;20479;-52
2023/07/13 07:35:30;;;;;;;9.87;3.83;;;;;;;;;;5052777;28;20881;-48
2023/07/13 07:37:58;;;;;;;6.27;3.40;;;;;;;;;;5055024;28;20442;-48
2023/07/13 07:40:25;;;;;;;6.27;3.50;;;;;;;;;;5054506;28;20506;-48
2023/07/13 07:42:51;;;;;;;7.00;2.97;;;;;;;;;;5055044;28;20390;-50
2023/07/13 07:45:17;;;;;;;3.90;3.20;;;;;;;;;;5054192;28;20895;-47
2023/07/13 07:47:43;;;;;;;9.33;3.67;;;;;;;;;;5054749;28;20553;-47
2023/07/13 07:50:09;;;;;;;8.60;3.13;;;;;;;;;;5054706;28;20404;-47
2023/07/13 07:52:35;;;;;;;10.60;3.20;;;;;;;;;;5054797;28;20410;-48
2023/07/13 07:55:01;;;;;;;9.60;3.40;;;;;;;;;;5054528;28;20773;-48
2023/07/13 07:57:27;;;;;;;8.93;3.43;;;;;;;;;;5054753;28;20434;-48
2023/07/13 07:59:53;;;;;;;7.07;3.30;;;;;;;;;;5054514;28;20419;-48
2023/07/13 08:02:19;;;;;;;12.60;2.90;;;;;;;;;;5054625;28;20536;-48
2023/07/13 08:04:45;;;;;;;7.63;3.27;;;;;;;;;;5056515;28;20419;-51
2023/07/13 08:07:11;;;;;;;8.10;3.00;;;;;;;;;;5054279;28;20431;-53
2023/07/13 08:09:36;;;;;;;7.20;2.83;;;;;;;;;;5054159;28;20440;-49
2023/07/13 08:12:02;;;;;;;11.60;2.73;;;;;;;;;;5054378;28;20760;-48
2023/07/13 08:14:29;;;;;;;6.23;3.50;;;;;;;;;;5054028;28;20428;-48
2023/07/13 08:16:55;;;;;;;13.20;2.93;;;;;;;;;;5054521;28;20427;-48
2023/07/13 08:19:21;;;;;;;7.23;3.00;;;;;;;;;;5054267;28;20445;-48
2023/07/13 08:21:48;;;;;;;9.47;3.70;;;;;;;;;;5053902;28;20544;-48
2023/07/13 08:24:14;;;;;;;4.70;3.00;;;;;;;;;;5054159;28;20418;-52
2023/07/13 08:26:41;;;;;;;6.73;3.47;;;;;;;;;;5054379;28;20399;-50
2023/07/13 08:29:09;;;;;;;5.57;3.67;;;;;;;;;;5054222;28;20909;-49
2023/07/13 08:31:34;;;;;;;9.17;3.07;;;;;;;;;;5053874;28;20416;-48
2023/07/13 08:34:00;;;;;;;8.13;3.83;;;;;;;;;;5053963;28;20421;-48
2023/07/13 08:36:28;;;;;;;7.10;3.07;;;;;;;;;;5054122;28;20421;-48
2023/07/13 08:38:54;;;;;;;6.03;3.30;;;;;;;;;;5036337;28;20425;-51
2023/07/13 08:41:22;;;;;;;9.10;3.20;;;;;;;;;;5052823;28;20457;-48
2023/07/13 08:43:50;;;;;;;6.10;3.13;;;;;;;;;;5053904;28;20980;-48
2023/07/13 08:46:19;;;;;;;14.23;3.67;;;;;;;;;;5052610;28;20533;-48
2023/07/13 08:48:48;;;;;;;5.67;3.17;;;;;;;;;;5053650;28;20417;-49
2023/07/13 08:51:33;;;;;;;6.27;2.93;;;;;;;;;;5053100;28;20409;-48
2023/07/13 08:54:01;;;;;;;6.13;3.60;;;;;;;;;;5053596;28;20404;-48
2023/07/13 08:56:28;;;;;;;6.47;3.30;;;;;;;;;;5053472;28;20405;-49
2023/07/13 08:59:23;;;;;;;4.53;2.80;;;;;;;;;;5053226;28;20479;-51
2023/07/13 09:02:01;;;;;;;6.80;3.00;;;;;;;;;;5038202;28;20529;-48
2023/07/13 09:04:33;;;;;;;4.80;3.00;;;;;;;;;;5053756;28;20401;-48
2023/07/13 09:07:22;;;;;;;9.23;2.97;;;;;;;;;;5052939;28;20501;-48
2023/07/13 09:10:01;;;;;;;4.60;2.83;;;;;;;;;;5046313;28;20402;-51
2023/07/13 09:12:36;;;;;;;10.40;3.30;;;;;;;;;;5053273;28;20415;-49
2023/07/13 09:15:04;;;;;;;10.57;3.03;;;;;;;;;;5053332;28;20450;-50
2023/07/13 09:17:42;;;;;;;4.17;2.47;;;;;;;;;;5052374;28;20431;-48
2023/07/13 09:20:19;;;;;;;5.43;2.40;;;;;;;;;;5052974;28;20407;-51
2023/07/13 09:22:46;;;;;;;3.80;2.63;;;;;;;;;;5050464;28;20463;-49
2023/07/13 09:25:30;;;;;;;4.63;2.60;;;;;;;;;;5052963;28;20435;-49
2023/07/13 09:28:00;;;;;;;4.90;3.00;;;;;;;;;;5047354;28;20524;-48
2023/07/13 09:30:35;;;;;;;4.13;2.67;;;;;;;;;;5052669;28;20940;-49
2023/07/13 09:33:01;;;;;;;4.40;2.40;;;;;;;;;;5052808;28;20420;-50
2023/07/13 09:35:29;;;;;;;4.40;2.47;;;;;;;;;;5052706;28;20481;-49
2023/07/13 09:37:58;;;;;;;5.43;2.60;;;;;;;;;;5052578;28;20421;-48
2023/07/13 09:40:37;;;;;;;2.80;2.20;;;;;;;;;;5052301;28;20485;-48
2023/07/13 09:43:04;;;;;;;6.83;2.63;;;;;;;;;;5053172;28;20760;-48
2023/07/13 09:45:33;;;;;;;6.70;2.90;;;;;;;;;;5055363;28;20431;-49
2023/07/13 09:48:00;;;;;;;7.00;3.80;;;;;;;;;;5052712;28;20441;-49
2023/07/13 09:50:29;;;;;;;3.37;3.07;;;;;;;;;;5052206;28;20506;-49
2023/07/13 09:52:59;;;;;;;7.40;2.60;;;;;;;;;;5052766;28;20791;-48
2023/07/13 09:55:25;;;;;;;3.67;2.30;;;;;;;;;;5052374;28;20906;-51
2023/07/13 09:57:52;;;;;;;6.80;2.70;;;;;;;;;;5051963;28;20452;-52
2023/07/13 10:00:29;;;;;;;3.73;2.70;;;;;;;;;;5052171;28;20511;-48
2023/07/13 10:03:03;;;;;;;4.30;3.00;;;;;;;;;;5052520;28;20837;-51
2023/07/13 10:05:37;;;;;;;8.50;3.40;;;;;;;;;;5052188;28;20397;-49
2023/07/13 10:08:03;;;;;;;6.97;2.97;;;;;;;;;;5047239;28;20440;-47
2023/07/13 10:10:30;;;;;;;8.83;4.20;;;;;;;;;;5051865;28;20405;-48
2023/07/13 10:12:56;;;;;;;6.30;2.30;;;;;;;;;;5052225;28;20540;-51
2023/07/13 10:15:25;;;;;;;3.80;2.67;;;;;;;;;;5052036;28;20905;-48
2023/07/13 10:17:52;;;;;;;3.60;2.50;;;;;;;;;;5051956;28;20986;-48
2023/07/13 10:20:21;;;;;;;4.83;3.03;;;;;;;;;;5051679;28;20450;-49
2023/07/13 10:23:00;;;;;;;3.60;2.63;;;;;;;;;;5051868;28;20460;-52
2023/07/13 10:25:30;;;;;;;2.70;2.50;;;;;;;;;;5051779;28;20496;-49
2023/07/13 10:28:07;;;;;;;5.60;2.40;;;;;;;;;;5051809;28;20425;-49
2023/07/13 10:30:39;;;;;;;5.53;2.50;;;;;;;;;;5051872;28;20401;-49
2023/07/13 10:33:11;;;;;;;2.73;2.20;;;;;;;;;;5051733;28;20416;-48
2023/07/13 10:35:38;;;;;;;4.53;2.77;;;;;;;;;;5051704;28;20437;-50
2023/07/13 10:38:09;;;;;;;6.63;2.77;;;;;;;;;;5051717;28;20431;-48
2023/07/13 10:40:38;;;;;;;4.07;2.10;;;;;;;;;;5051247;28;20405;-49
2023/07/13 10:43:06;;;;;;;3.70;2.53;;;;;;;;;;5051618;28;20405;-48
2023/07/13 10:45:36;;;;;;;11.50;3.60;;;;;;;;;;5051302;28;20447;-49
2023/07/13 10:48:02;;;;;;;5.13;2.30;;;;;;;;;;5051544;28;20432;-49
2023/07/13 10:50:30;;;;;;;4.67;2.40;;;;;;;;;;5051181;28;20424;-48
2023/07/13 10:53:01;;;;;;;4.43;2.20;;;;;;;;;;5051642;28;20408;-49
2023/07/13 10:55:31;;;;;;;3.27;2.33;;;;;;;;;;5050326;28;20929;-48
2023/07/13 10:58:01;;;;;;;5.13;2.77;;;;;;;;;;5051298;28;20437;-49
2023/07/13 11:00:27;;;;;;;4.73;2.60;;;;;;;;;;5051321;28;20408;-48
2023/07/13 11:03:03;;;;;;;2.67;2.47;;;;;;;;;;5051518;28;20524;-48
2023/07/13 11:05:29;;;;;;;4.80;2.23;;;;;;;;;;5051467;28;20435;-49
2023/07/13 11:07:57;;;;;;;6.30;2.83;;;;;;;;;;5051267;28;20821;-50
2023/07/13 11:10:42;;;;;;;7.47;2.87;;;;;;;;;;5059588;28;21146;-49
2023/07/13 11:13:28;;;;;;;5.70;2.57;;;;;;;;;;5074903;28;20419;-49
2023/07/13 11:15:55;;;;;;;6.23;2.30;;;;;;;;;;5057937;28;20854;-49
2023/07/13 11:18:24;;;;;;;3.87;2.80;;;;;;;;;;5057824;28;20432;-49
2023/07/13 11:20:51;;;;;;;7.67;2.87;;;;;;;;;;5057622;28;20448;-52
2023/07/13 11:23:17;;;;;;;8.97;2.40;;;;;;;;;;5058065;28;20417;-49
2023/07/13 11:25:43;;;;;;;3.47;2.53;;;;;;;;;;5057801;28;20412;-50
2023/07/13 11:28:22;;;;;;;4.93;2.40;;;;;;;;;;5057879;28;20799;-49
2023/07/13 11:30:56;;;;;;;6.93;2.33;;;;;;;;;;5057663;28;20409;-49
2023/07/13 11:33:28;;;;;;;6.77;2.20;;;;;;;;;;5057467;28;20783;-51
2023/07/13 11:36:00;;;;;;;3.97;2.50;;;;;;;;;;5057907;28;20446;-50
2023/07/13 11:38:32;;;;;;;6.37;2.40;;;;;;;;;;5057869;28;20527;-51
2023/07/13 11:41:03;;;;;;;4.17;1.90;;;;;;;;;;5057511;28;20497;-49
2023/07/13 11:43:29;;;;;;;3.20;2.10;;;;;;;;;;5057779;28;20469;-48
2023/07/13 11:45:55;;;;;;;4.13;2.20;;;;;;;;;;5057972;28;20946;-48
2023/07/13 11:48:27;;;;;;;2.93;2.40;;;;;;;;;;5057586;28;20467;-49
2023/07/13 11:51:03;;;;;;;6.10;2.43;;;;;;;;;;5057798;28;20432;-49
2023/07/13 11:53:30;;;;;;;6.17;2.40;;;;;;;;;;5057600;28;20542;-49
2023/07/13 11:55:58;;;;;;;5.23;2.20;;;;;;;;;;5057437;28;20425;-49
2023/07/13 11:58:25;;;;;;;2.80;2.33;;;;;;;;;;5057582;28;20447;-51
2023/07/13 12:00:54;;;;;;;2.23;2.03;;;;;;;;;;5057109;28;20463;-52
2023/07/13 12:03:23;;;;;;;2.20;2.00;;;;;;;;;;5057212;28;21008;-50
2023/07/13 12:06:16;;;;;;;4.37;2.23;;;;;;;;;;5056389;28;20397;-49
2023/07/13 12:08:42;;;;;;;3.33;2.10;;;;;;;;;;5033976;28;20442;-50
2023/07/13 12:11:17;;;;;;;2.97;2.10;;;;;;;;;;5056685;28;20902;-49
2023/07/13 12:13:44;;;;;;;11.33;2.07;;;;;;;;;;5057932;28;20416;-50
2023/07/13 12:16:16;;;;;;;3.17;1.97;;;;;;;;;;5057611;28;20405;-49
2023/07/13 12:18:45;;;;;;;5.10;2.10;;;;;;;;;;5057578;28;20486;-50
2023/07/13 12:21:14;;;;;;;3.80;2.00;;;;;;;;;;5055600;28;20453;-51
2023/07/13 12:23:40;;;;;;;2.30;2.10;;;;;;;;;;5054271;28;20468;-52
2023/07/13 12:26:09;;;;;;;3.40;2.27;;;;;;;;;;5054156;28;20409;-49
2023/07/13 12:28:56;;;;;;;4.00;1.83;;;;;;;;;;5053655;28;20490;-49
2023/07/13 12:31:25;;;;;;;3.90;2.10;;;;;;;;;;5053913;28;20405;-49
2023/07/13 12:33:57;;;;;;;4.03;2.23;;;;;;;;;;5054201;28;20467;-52
2023/07/13 12:36:23;;;;;;;4.07;2.17;;;;;;;;;;5053975;28;20896;-51
2023/07/13 12:38:51;;;;;;;4.43;2.60;;;;;;;;;;5053897;28;20532;-51
2023/07/13 12:41:17;;;;;;;3.70;1.90;;;;;;;;;;5053677;28;20453;-49
2023/07/13 12:43:45;;;;;;;5.23;2.50;;;;;;;;;;5053917;28;20405;-49
2023/07/13 12:46:19;;;;;;;4.33;2.13;;;;;;;;;;5050821;28;20902;-49
2023/07/13 12:48:49;;;;;;;4.70;2.10;;;;;;;;;;5053764;28;20454;-51
2023/07/13 12:51:16;;;;;;;3.10;1.90;;;;;;;;;;5053731;28;20420;-49
2023/07/13 12:53:43;;;;;;;2.87;2.00;;;;;;;;;;5053750;28;20490;-49
2023/07/13 12:56:17;;;;;;;4.77;1.70;;;;;;;;;;5053779;28;20413;-51
2023/07/13 12:58:46;;;;;;;9.80;2.00;;;;;;;;;;5053632;28;20432;-49
2023/07/13 13:01:13;;;;;;;3.93;2.20;;;;;;;;;;5052601;28;21023;-50
2023/07/13 13:03:41;;;;;;;2.53;1.97;;;;;;;;;;5053344;28;20424;-49
2023/07/13 13:06:16;;;;;;;8.40;2.47;;;;;;;;;;5053317;28;20436;-50
2023/07/13 13:08:43;;;;;;;2.13;1.97;;;;;;;;;;5053524;28;20792;-49
2023/07/13 13:11:09;;;;;;;5.80;2.63;;;;;;;;;;5053129;28;20413;-49
2023/07/13 13:13:35;;;;;;;4.33;2.23;;;;;;;;;;5053219;28;20757;-49
2023/07/13 13:16:05;;;;;;;3.30;1.90;;;;;;;;;;5053130;28;20789;-49
2023/07/13 13:18:32;;;;;;;3.80;2.77;;;;;;;;;;5053186;28;20421;-49
2023/07/13 13:20:58;;;;;;;3.20;1.93;;;;;;;;;;5052822;28;20503;-49
2023/07/13 13:23:25;;;;;;;4.43;2.33;;;;;;;;;;5053128;28;20441;-50
2023/07/13 13:25:52;;;;;;;2.00;1.80;;;;;;;;;;5053138;28;20441;-49
2023/07/13 13:28:19;;;;;;;5.20;2.40;;;;;;;;;;5052953;28;20851;-49
2023/07/13 13:30:47;;;;;;;2.60;2.00;;;;;;;;;;5052897;28;20945;-48
2023/07/13 13:33:18;;;;;;;3.80;2.10;;;;;;;;;;5052358;28;20417;-51
2023/07/13 13:35:44;;;;;;;1.83;1.70;;;;;;;;;;5052890;28;20506;-52
2023/07/13 13:38:14;;;;;;;2.63;2.30;;;;;;;;;;5051858;28;20520;-49
2023/07/13 13:40:42;;;;;;;3.90;2.00;;;;;;;;;;5052562;28;20450;-50
2023/07/13 13:43:18;;;;;;;5.07;2.00;;;;;;;;;;5052134;28;20416;-49
2023/07/13 13:45:46;;;;;;;3.40;2.27;;;;;;;;;;5050121;28;20992;-49
2023/07/13 13:48:14;;;;;;;5.23;2.40;;;;;;;;;;5052233;28;20518;-49
2023/07/13 13:50:40;;;;;;;3.50;2.10;;;;;;;;;;5050931;28;20999;-48
2023/07/13 13:53:10;;;;;;;5.17;2.67;;;;;;;;;;5052629;28;20490;-49
2023/07/13 13:55:36;;;;;;;4.47;2.90;;;;;;;;;;5051308;28;20420;-49
2023/07/13 13:58:03;;;;;;;3.93;2.90;;;;;;;;;;5052026;28;20942;-51
2023/07/13 14:00:29;;;;;;;2.90;2.70;;;;;;;;;;5042913;28;20460;-48
2023/07/13 14:02:57;;;;;;;5.40;2.83;;;;;;;;;;5052186;28;20461;-49
2023/07/13 14:05:25;;;;;;;3.20;3.00;;;;;;;;;;5052341;28;20762;-50
2023/07/13 14:07:52;;;;;;;4.47;2.67;;;;;;;;;;5034946;28;20610;-49
2023/07/13 14:10:19;;;;;;;6.57;3.10;;;;;;;;;;5051976;28;20414;-48
2023/07/13 14:12:48;;;;;;;4.70;2.47;;;;;;;;;;5052208;28;20801;-51
2023/07/13 14:15:22;;;;;;;3.13;2.77;;;;;;;;;;5052045;28;20431;-49
2023/07/13 14:17:51;;;;;;;4.93;3.43;;;;;;;;;;5052220;28;20919;-49
2023/07/13 14:20:19;;;;;;;4.17;3.40;;;;;;;;;;5051951;28;20406;-48
2023/07/13 14:22:45;;;;;;;6.00;2.67;;;;;;;;;;5051904;28;20974;-49
2023/07/13 14:25:12;;;;;;;4.87;3.93;;;;;;;;;;5052259;28;20413;-49
2023/07/13 14:27:38;;;;;;;3.97;3.03;;;;;;;;;;5051976;28;20410;-48
2023/07/13 14:30:12;;;;;;;3.83;3.30;;;;;;;;;;5051686;28;20414;-48
2023/07/13 14:32:38;;;;;;;8.10;3.13;;;;;;;;;;5051937;28;20907;-48
2023/07/13 14:35:05;;;;;;;8.60;3.80;;;;;;;;;;5051698;28;20440;-51
2023/07/13 14:37:31;;;;;;;3.20;2.90;;;;;;;;;;5051790;28;20486;-48
2023/07/13 14:39:57;;;;;;;3.87;3.10;;;;;;;;;;5033740;28;20413;-49
2023/07/13 14:42:25;;;;;;;4.43;3.47;;;;;;;;;;5051801;28;20468;-49
2023/07/13 14:44:51;;;;;;;10.60;3.97;;;;;;;;;;5050640;28;20405;-49
2023/07/13 14:47:18;;;;;;;9.13;3.43;;;;;;;;;;5045397;28;20889;-50